Fidelity
UTM 11U Easting = 45 1062, Northing = 56 76123     Elevation = 1905 m
Note to Users: This site contains raw data and is presented "as is" and in real time. Although reasonable care is exercised in providing this information, inaccuracies or omissions may occur due to the properties of weather and data collection systems. The Avalanche Control Section, responsible for its collection, disclaims all responsibility for the accuracy of the information.
Date Max Temp (deg C) Min Temp (deg C) Rel Hum (%) 1 Hr Precip (mm) 1 Hr Snow (cm) HS (cm) HN24 (cm) ILWR Max ILWR Min ILWR Ave ISWR Max ISWR Min ISWR Ave
2021-02-27 01:00 -9 -10 85 0.1 4 371 21 273 0 274 274 0 0
2021-02-27 02:00 -9 -10 84 0.0 0 370 20 272 0 273 274 0 0
2021-02-27 03:00 -9 -10 85 0.1 0 369 19 271 0 272 273 0 0
2021-02-27 04:00 -10 -10 86 0.7 1 369 21 272 0 272 273 0 0
2021-02-27 05:00 -10 -10 86 0.5 1 370 22 271 0 272 273 0 0
2021-02-27 06:00 -10 -10 84 0.6 0 368 23 271 0 271 271 0 0
2021-02-27 07:00 -10 -10 84 0.3 0 368 23 269 0 270 271 10 2
2021-02-27 08:00 -10 -11 82 0.0 0 370 23 267 6 268 270 50 27
2021-02-27 09:00 -10 -11 83 0.2 0 369 23 268 39 270 276 463 158
2021-02-27 10:00 -9 -10 85 0.2 0 366 23 272 151 278 279 609 317
2021-02-27 11:00 -8 -9 84 0.2 0 363 23 276 164 280 283 876 388
2021-02-27 12:00 -8 -9 79 0.1 0 368 0 278 208 280 281 856 401
2021-02-27 13:00 -8 -8 80 0.2 0 367 0 276 181 278 280 754 275
2021-02-27 14:00 -8 -9 79 0.1 0 366 0 276 162 277 278 348 214
2021-02-27 15:00 -8 -9 78 0.1 0 364 0 275 114 276 277 247 165
2021-02-27 16:00 -9 -9 77 0.0 0 368 1 273 73 274 275 147 117
2021-02-27 17:00 -9 -10 78 0.0 0 367 1 271 22 272 274 88 46
2021-02-27 18:00 -10 -10 79 0.0 0 367 1 270 0 270 271 27 6
2021-02-27 19:00 -10 -10 83 0.2 0 366 1 270 0 270 270 0 0
2021-02-27 20:00 -10 -10 84 0.2 1 366 1 269 0 270 270 0 0
2021-02-27 21:00 -10 -11 83 0.3 0 366 1 269 0 269 270 0 0
2021-02-27 22:00 -10 -10 84 0.3 0 366 2 269 0 270 270 0 0
2021-02-27 23:00 -10 -10 85 0.2 0 365 2 270 0 270 270 0 0
2021-02-28 00:00 -10 -10 85 0.1 0 360 1 269 0 270 270 0 0